createdAt,value
2022-09-12T00:00:57.337Z,90.97
2022-09-12T00:01:57.366Z,91.08
2022-09-12T00:02:57.292Z,90.88
2022-09-12T00:03:57.272Z,90.88
2022-09-12T00:04:57.275Z,91.02
2022-09-12T00:05:57.241Z,91.12
2022-09-12T00:06:57.236Z,91.32
2022-09-12T00:07:57.262Z,91.22
2022-09-12T00:08:57.219Z,91.32
2022-09-12T00:09:57.213Z,91.22
2022-09-12T00:10:57.192Z,91.63
2022-09-12T00:11:57.167Z,91.52
2022-09-12T00:12:57.159Z,91.42
2022-09-12T00:13:57.170Z,91.63
2022-09-12T00:14:57.131Z,91.63
2022-09-12T00:15:57.140Z,91.83
2022-09-12T00:16:57.101Z,91.83
2022-09-12T00:17:57.081Z,91.73
2022-09-12T00:18:57.087Z,92.03
2022-09-12T00:19:57.060Z,91.93
2022-09-12T00:20:57.058Z,92.24
2022-09-12T00:21:57.041Z,92.13
2022-09-12T00:22:57.020Z,92.13
2022-09-12T00:23:57.019Z,92.33
2022-09-12T00:24:57.008Z,92.24
2022-09-12T00:25:56.988Z,92.38
2022-09-12T00:26:56.998Z,92.48
2022-09-12T00:27:57.056Z,92.79
2022-09-12T00:28:57.007Z,92.68
2022-09-12T00:29:56.937Z,92.79
2022-09-12T00:30:56.928Z,92.79
2022-09-12T00:31:56.973Z,92.79
2022-09-12T00:32:56.889Z,93.19
2022-09-12T00:33:56.886Z,93.40
2022-09-12T00:34:56.866Z,93.29
2022-09-12T00:35:56.886Z,93.40
2022-09-12T00:36:56.837Z,93.49
2022-09-12T00:37:56.853Z,93.40
2022-09-12T00:38:56.816Z,93.40
2022-09-12T00:39:56.843Z,93.40
2022-09-12T00:40:56.796Z,93.49
2022-09-12T00:41:56.766Z,93.49
2022-09-12T00:42:56.769Z,93.60
2022-09-12T00:43:56.768Z,93.70
2022-09-12T00:44:56.785Z,93.90
2022-09-12T00:45:56.926Z,93.80
2022-09-12T00:46:56.718Z,93.90
2022-09-12T00:47:56.687Z,94.00
2022-09-12T00:48:56.686Z,94.21
2022-09-12T00:49:56.675Z,94.10
2022-09-12T00:50:56.657Z,94.05
2022-09-12T00:51:56.634Z,94.25
2022-09-12T00:52:56.636Z,94.35
2022-09-12T00:53:56.640Z,94.66
2022-09-12T00:54:56.614Z,94.56
2022-09-12T00:55:56.598Z,94.66
2022-09-12T00:56:56.577Z,94.66
2022-09-12T00:57:56.554Z,94.76
2022-09-12T00:58:56.548Z,94.86
2022-09-12T00:59:56.536Z,94.76
2022-09-12T01:00:56.586Z,94.96
2022-09-12T01:01:56.608Z,94.76
2022-09-12T01:02:56.502Z,94.76
2022-09-12T01:03:56.535Z,95.06
2022-09-12T01:04:56.483Z,94.86
2022-09-12T01:05:56.510Z,94.86
2022-09-12T01:06:57.197Z,94.86
2022-09-12T01:07:57.350Z,94.96
2022-09-12T01:08:56.522Z,94.86
2022-09-12T01:09:56.571Z,95.06
2022-09-12T01:10:57.204Z,95.01
2022-09-12T01:11:56.410Z,95.10
2022-09-12T01:12:56.394Z,95.21
2022-09-12T01:13:56.384Z,95.31
2022-09-12T01:14:56.352Z,95.41
2022-09-12T01:15:56.335Z,95.31
2022-09-12T01:16:56.313Z,95.41
2022-09-12T01:17:56.302Z,95.62
2022-09-12T01:18:56.302Z,95.92
2022-09-12T01:19:56.281Z,95.92
2022-09-12T01:20:56.271Z,96.02
2022-09-12T01:21:56.263Z,96.02
2022-09-12T01:22:56.326Z,95.82
2022-09-12T01:23:56.223Z,96.12
2022-09-12T01:24:56.223Z,96.33
2022-09-12T01:25:56.200Z,96.33
2022-09-12T01:26:56.192Z,96.33
2022-09-12T01:27:56.177Z,96.33
2022-09-12T01:28:56.169Z,96.43
2022-09-12T01:29:56.170Z,96.58
2022-09-12T01:30:56.154Z,96.58
2022-09-12T01:31:56.242Z,96.68
2022-09-12T01:32:56.108Z,96.68
2022-09-12T01:33:56.128Z,96.88
2022-09-12T01:34:56.079Z,96.88
2022-09-12T01:35:56.083Z,96.88
2022-09-12T01:36:56.069Z,96.88
2022-09-12T01:37:56.037Z,96.98
2022-09-12T01:38:56.029Z,96.98
2022-09-12T01:39:56.082Z,96.98
2022-09-12T01:40:56.009Z,97.19
2022-09-12T01:41:55.991Z,97.08
2022-09-12T01:42:55.988Z,97.08
2022-09-12T01:43:55.960Z,97.08
2022-09-12T01:44:56.149Z,97.08
2022-09-12T01:45:56.028Z,97.19
2022-09-12T01:46:55.950Z,97.23
2022-09-12T01:47:55.914Z,97.44
2022-09-12T01:48:55.897Z,97.53
2022-09-12T01:49:55.886Z,97.64
2022-09-12T01:50:55.879Z,97.64
2022-09-12T01:51:55.886Z,97.64
2022-09-12T01:52:55.878Z,97.74
2022-09-12T01:53:55.833Z,97.74
2022-09-12T01:54:55.827Z,97.94
2022-09-12T01:55:55.819Z,98.05
2022-09-12T01:56:55.823Z,97.84
2022-09-12T01:57:55.846Z,97.94
2022-09-12T01:58:55.838Z,97.94
2022-09-12T01:59:55.767Z,97.94
2022-09-12T02:00:55.804Z,97.94
2022-09-12T02:01:55.791Z,98.14
2022-09-12T02:02:55.745Z,98.14
2022-09-12T02:03:55.709Z,98.25
2022-09-12T02:04:55.711Z,98.14
2022-09-12T02:05:55.686Z,98.14
2022-09-12T02:06:55.675Z,98.05
2022-09-12T02:07:55.644Z,98.05
2022-09-12T02:08:55.643Z,98.05
2022-09-12T02:09:55.664Z,98.14
2022-09-12T02:10:55.623Z,98.19
2022-09-12T02:11:55.604Z,98.30
2022-09-12T02:12:55.595Z,98.50
2022-09-12T02:15:12.203Z,98.60
2022-09-12T02:16:12.253Z,98.60
2022-09-12T02:17:12.179Z,98.70
2022-09-12T02:18:12.175Z,98.70
2022-09-12T02:19:12.145Z,98.70
2022-09-12T02:20:17.755Z,98.70
2022-09-12T02:21:13.157Z,98.70
2022-09-12T02:22:12.107Z,98.70
2022-09-12T02:23:12.123Z,98.80
2022-09-12T02:24:12.098Z,98.70
2022-09-12T02:25:12.086Z,98.60
2022-09-12T02:26:12.053Z,98.60
2022-09-12T02:27:12.036Z,98.70
2022-09-12T02:28:12.072Z,98.80
2022-09-12T02:29:12.007Z,98.80
2022-09-12T02:30:12.014Z,98.91
2022-09-12T02:31:12.001Z,98.91
2022-09-12T02:32:11.976Z,98.91
2022-09-12T02:33:12.225Z,98.91
2022-09-12T02:34:11.955Z,98.80
2022-09-12T02:35:11.938Z,98.91
2022-09-12T02:36:11.913Z,98.91
2022-09-12T02:37:11.912Z,98.91
2022-09-12T02:38:11.906Z,99.01
2022-09-12T02:39:11.884Z,99.01
2022-09-12T02:40:11.927Z,99.11
2022-09-12T02:41:11.859Z,99.01
2022-09-12T02:42:11.852Z,99.01
2022-09-12T02:43:11.824Z,99.01
2022-09-12T02:44:11.833Z,99.11
2022-09-12T02:45:11.836Z,99.16
2022-09-12T02:46:11.793Z,99.26
2022-09-12T02:47:11.780Z,99.26
2022-09-12T02:48:13.437Z,99.26
2022-09-12T02:49:11.742Z,99.26
2022-09-12T02:50:11.751Z,99.26
2022-09-12T02:51:11.713Z,99.16
2022-09-12T02:52:11.700Z,99.36
2022-09-12T02:53:11.705Z,99.56
2022-09-12T02:54:11.680Z,99.46
2022-09-12T02:55:11.670Z,99.41
2022-09-12T02:56:11.650Z,99.31
2022-09-12T02:57:11.647Z,99.26
2022-09-12T02:58:11.633Z,99.26
2022-09-12T02:59:11.629Z,99.26
2022-09-12T03:00:11.618Z,99.36
2022-09-12T03:01:11.613Z,99.26
2022-09-12T03:02:11.664Z,99.05
2022-09-12T03:03:11.570Z,99.16
2022-09-12T03:04:11.607Z,99.26
2022-09-12T03:05:11.608Z,99.26
2022-09-12T03:06:11.527Z,99.36
2022-09-12T03:07:11.517Z,99.56
2022-09-12T03:08:11.498Z,99.66
2022-09-12T03:09:11.476Z,99.66
2022-09-12T03:10:11.487Z,99.56
2022-09-12T03:11:11.550Z,99.66
2022-09-12T03:12:11.467Z,99.46
2022-09-12T03:13:11.465Z,99.56
2022-09-12T03:14:11.436Z,99.56
2022-09-12T03:15:11.428Z,99.66
2022-09-12T03:16:11.416Z,99.56
2022-09-12T03:17:11.386Z,99.46
2022-09-12T03:18:11.369Z,99.51
2022-09-12T03:19:11.355Z,99.51
2022-09-12T03:20:11.338Z,99.61
2022-09-12T03:21:11.324Z,99.81
2022-09-12T03:22:11.316Z,99.81
2022-09-12T03:23:11.298Z,99.91
2022-09-12T03:24:11.295Z,99.91
2022-09-12T03:25:11.312Z,99.91
2022-09-12T03:26:11.274Z,99.99
2022-09-12T03:27:11.257Z,99.99
2022-09-12T03:28:11.235Z,99.99
2022-09-12T03:29:11.245Z,99.99
2022-09-12T03:30:11.216Z,99.99
2022-09-12T03:31:11.214Z,99.99
2022-09-12T03:32:11.175Z,99.99
2022-09-12T03:33:11.196Z,99.99
2022-09-12T03:34:11.179Z,99.99
2022-09-12T03:35:14.985Z,99.99
2022-09-12T03:36:11.137Z,99.99
2022-09-12T03:37:11.143Z,99.99
2022-09-12T03:38:11.123Z,99.99
2022-09-12T03:39:11.107Z,99.91
2022-09-12T03:40:11.134Z,99.81
2022-09-12T03:41:11.087Z,99.91
2022-09-12T03:42:11.079Z,99.91
2022-09-12T03:43:11.052Z,99.81
2022-09-12T03:44:11.024Z,99.71
2022-09-12T03:45:11.024Z,99.71
2022-09-12T03:46:11.011Z,99.71
2022-09-12T03:47:11.484Z,99.71
2022-09-12T03:48:10.972Z,99.51
2022-09-12T03:49:10.965Z,99.41
2022-09-12T03:50:10.963Z,99.51
2022-09-12T03:51:10.944Z,99.51
2022-09-12T03:52:10.926Z,99.41
2022-09-12T03:53:14.083Z,99.41
2022-09-12T03:54:11.901Z,99.51
2022-09-12T03:55:10.876Z,99.61
2022-09-12T03:56:10.878Z,99.55
2022-09-12T03:57:10.859Z,99.35
2022-09-12T03:58:10.854Z,99.35
2022-09-12T03:59:10.830Z,99.55
2022-09-12T04:00:10.841Z,99.86
2022-09-12T04:01:10.859Z,99.96
2022-09-12T04:02:11.827Z,99.86
2022-09-12T04:03:10.791Z,99.66
2022-09-12T04:04:10.771Z,99.86
2022-09-12T04:05:10.781Z,99.76
2022-09-12T04:06:10.756Z,99.96
2022-09-12T04:07:10.738Z,99.86
2022-09-12T04:08:10.729Z,99.86
2022-09-12T04:09:10.773Z,99.99
2022-09-12T04:10:10.701Z,99.99
2022-09-12T04:11:10.721Z,99.99
2022-09-12T04:12:10.669Z,99.99
2022-09-12T04:13:10.658Z,99.99
2022-09-12T04:14:10.639Z,99.99
2022-09-12T04:15:10.637Z,99.99
2022-09-12T04:16:10.644Z,99.99
2022-09-12T04:17:10.595Z,99.99
2022-09-12T04:18:10.586Z,99.99
2022-09-12T04:19:10.577Z,99.99
2022-09-12T04:20:10.558Z,99.99
2022-09-12T04:21:10.556Z,99.99
2022-09-12T04:22:10.536Z,99.99
2022-09-12T04:23:10.551Z,99.99
2022-09-12T04:24:10.517Z,99.99
2022-09-12T04:25:10.527Z,99.99
2022-09-12T04:26:10.517Z,99.99
2022-09-12T04:27:10.502Z,99.99
2022-09-12T04:28:10.449Z,99.99
2022-09-12T04:29:10.452Z,99.99
2022-09-12T04:30:10.588Z,99.99
2022-09-12T04:31:10.524Z,99.99
2022-09-12T04:32:10.414Z,99.99
2022-09-12T04:33:10.395Z,99.99
2022-09-12T04:34:10.384Z,99.99
2022-09-12T04:35:10.385Z,99.99
2022-09-12T04:36:10.382Z,99.99
2022-09-12T04:37:10.346Z,99.99
2022-09-12T04:38:10.405Z,99.99
2022-09-12T04:39:10.400Z,99.99
2022-09-12T04:40:10.369Z,99.99
2022-09-12T04:41:10.281Z,99.99
2022-09-12T04:42:10.304Z,99.99
2022-09-12T04:43:14.389Z,99.99
2022-09-12T04:44:10.252Z,99.99
2022-09-12T04:45:10.263Z,99.99
2022-09-12T04:46:10.253Z,99.99
2022-09-12T04:47:10.238Z,99.99
2022-09-12T04:48:10.195Z,99.99
2022-09-12T04:49:10.202Z,99.99
2022-09-12T04:50:10.177Z,99.99
2022-09-12T04:51:10.151Z,99.99
2022-09-12T04:52:10.152Z,99.99
2022-09-12T04:53:10.131Z,99.99
2022-09-12T04:54:10.125Z,99.99
2022-09-12T04:55:10.126Z,99.99
2022-09-12T04:56:10.102Z,99.99
2022-09-12T04:57:10.117Z,99.99
2022-09-12T04:58:10.092Z,99.99
2022-09-12T04:59:10.061Z,99.99
2022-09-12T05:00:10.045Z,99.99
2022-09-12T05:01:10.098Z,99.99
2022-09-12T05:02:10.097Z,99.99
2022-09-12T05:03:10.011Z,99.96
2022-09-12T05:04:10.028Z,99.96
2022-09-12T05:05:09.993Z,99.96
2022-09-12T05:06:09.974Z,99.61
2022-09-12T05:07:10.091Z,99.41
2022-09-12T05:08:09.929Z,99.30
2022-09-12T05:09:09.929Z,99.30
2022-09-12T05:10:09.920Z,98.90
2022-09-12T05:11:09.964Z,98.39
2022-09-12T05:12:09.885Z,98.59
2022-09-12T05:13:09.889Z,98.59
2022-09-12T05:14:09.858Z,98.59
2022-09-12T05:15:09.867Z,98.59
2022-09-12T05:16:09.922Z,98.44
2022-09-12T05:17:09.814Z,98.34
2022-09-12T05:18:09.816Z,98.28
2022-09-12T05:19:09.819Z,98.24
2022-09-12T05:20:09.803Z,98.03
2022-09-12T05:21:09.766Z,98.44
2022-09-12T05:22:09.786Z,98.34
2022-09-12T05:23:09.742Z,97.93
2022-09-12T05:24:09.735Z,97.53
2022-09-12T05:25:09.736Z,97.63
2022-09-12T05:26:09.704Z,97.63
2022-09-12T05:27:09.696Z,98.03
2022-09-12T05:28:09.678Z,97.93
2022-09-12T05:29:09.678Z,97.99
2022-09-12T05:30:09.645Z,97.17
2022-09-12T05:31:09.657Z,97.38
2022-09-12T05:32:09.620Z,97.17
2022-09-12T05:33:09.655Z,97.03
2022-09-12T05:34:09.589Z,96.42
2022-09-12T05:35:09.593Z,96.11
2022-09-12T05:36:09.618Z,96.52
2022-09-12T05:37:09.557Z,96.01
2022-09-12T05:38:09.543Z,96.01
2022-09-12T05:39:09.536Z,95.66
2022-09-12T05:40:09.584Z,96.07
2022-09-12T05:41:12.405Z,95.36
2022-09-12T05:42:10.495Z,95.05
2022-09-12T05:43:09.482Z,95.00
2022-09-12T05:44:09.464Z,95.09
2022-09-12T05:45:09.452Z,95.09
2022-09-12T05:46:09.507Z,95.76
2022-09-12T05:47:09.430Z,95.86
2022-09-12T05:48:09.421Z,95.46
2022-09-12T05:49:09.411Z,95.36
2022-09-12T05:50:09.398Z,95.76
2022-09-12T05:51:09.427Z,95.56
2022-09-12T05:52:09.390Z,95.05
2022-09-12T05:53:09.373Z,94.54
2022-09-12T05:54:09.352Z,94.95
2022-09-12T05:55:09.353Z,95.15
2022-09-12T05:56:09.329Z,94.85
2022-09-12T05:57:09.340Z,95.05
2022-09-12T05:58:09.386Z,94.95
2022-09-12T05:59:09.281Z,94.74
2022-09-12T06:00:09.252Z,94.24
2022-09-12T06:01:09.320Z,94.34
2022-09-12T06:02:09.273Z,94.44
2022-09-12T06:03:09.221Z,94.95
2022-09-12T06:04:09.210Z,94.95
2022-09-12T06:05:09.185Z,94.74
2022-09-12T06:06:09.190Z,94.74
2022-09-12T06:07:09.168Z,95.05
2022-09-12T06:08:09.158Z,95.36
2022-09-12T06:09:09.169Z,94.74
2022-09-12T06:10:09.135Z,94.85
2022-09-12T06:11:09.119Z,94.85
2022-09-12T06:12:09.097Z,94.64
2022-09-12T06:13:09.087Z,94.64
2022-09-12T06:14:09.080Z,94.64
2022-09-12T06:15:09.067Z,94.74
2022-09-12T06:16:09.061Z,94.64
2022-09-12T06:17:09.057Z,94.54
2022-09-12T06:18:09.018Z,94.60
2022-09-12T06:19:09.025Z,94.50
2022-09-12T06:20:09.007Z,94.50
2022-09-12T06:21:08.989Z,94.20
2022-09-12T06:22:08.966Z,93.89
2022-09-12T06:23:08.975Z,93.99
2022-09-12T06:24:08.971Z,93.79
2022-09-12T06:25:08.958Z,93.89
2022-09-12T06:26:08.923Z,93.74
2022-09-12T06:27:08.932Z,93.54
2022-09-12T06:28:08.898Z,93.54
2022-09-12T06:29:08.874Z,93.33
2022-09-12T06:30:08.867Z,93.33
2022-09-12T06:31:08.890Z,93.24
2022-09-12T06:32:08.855Z,93.24
2022-09-12T06:33:08.836Z,93.09
2022-09-12T06:34:08.855Z,92.68
2022-09-12T06:35:08.832Z,92.79
2022-09-12T06:36:12.238Z,92.58
2022-09-12T06:37:08.774Z,92.79
2022-09-12T06:38:08.801Z,92.68
2022-09-12T06:39:08.749Z,92.68
2022-09-12T06:40:08.779Z,92.68
2022-09-12T06:41:08.722Z,92.58
2022-09-12T06:42:08.744Z,92.48
2022-09-12T06:43:08.694Z,92.33
2022-09-12T06:44:08.684Z,92.33
2022-09-12T06:45:08.684Z,92.13
2022-09-12T06:46:08.688Z,91.93
2022-09-12T06:47:08.662Z,91.83
2022-09-12T06:48:08.632Z,91.73
2022-09-12T06:49:08.617Z,91.58
2022-09-12T06:50:08.621Z,91.28
2022-09-12T06:51:08.600Z,91.28
2022-09-12T06:52:08.574Z,90.97
2022-09-12T06:53:08.575Z,90.77
2022-09-12T06:54:08.541Z,90.97
2022-09-12T06:55:08.541Z,90.83
2022-09-12T06:56:08.522Z,90.62
2022-09-12T06:57:08.534Z,90.42
2022-09-12T06:58:08.525Z,90.22
2022-09-12T06:59:08.493Z,90.22
2022-09-12T07:00:08.477Z,89.72
2022-09-12T07:01:08.542Z,89.72
2022-09-12T07:02:08.492Z,90.02
2022-09-12T07:03:08.464Z,89.61
2022-09-12T07:04:08.469Z,89.51
2022-09-12T07:05:08.408Z,89.61
2022-09-12T07:06:08.398Z,89.61
2022-09-12T07:07:08.422Z,89.81
2022-09-12T07:08:08.390Z,89.37
2022-09-12T07:09:08.367Z,89.37
2022-09-12T07:10:08.349Z,89.26
2022-09-12T07:11:08.349Z,89.26
2022-09-12T07:12:08.316Z,89.17
2022-09-12T07:13:08.299Z,89.06
2022-09-12T07:14:08.303Z,88.82
2022-09-12T07:15:08.270Z,88.92
2022-09-12T07:16:08.274Z,88.62
2022-09-12T07:17:08.292Z,88.31
2022-09-12T07:18:08.221Z,88.51
2022-09-12T07:19:08.228Z,88.42
2022-09-12T07:20:08.210Z,88.37
2022-09-12T07:21:08.200Z,88.27
2022-09-12T07:22:08.189Z,88.07
2022-09-12T07:23:08.162Z,87.87
2022-09-12T07:24:08.151Z,87.66
2022-09-12T07:25:08.171Z,87.36
2022-09-12T07:26:08.135Z,87.05
2022-09-12T07:27:08.125Z,87.26
2022-09-12T07:28:08.095Z,87.26
2022-09-12T07:29:32.777Z,87.46
2022-09-12T07:30:09.075Z,87.12
2022-09-12T07:31:08.118Z,86.71
2022-09-12T07:32:08.054Z,87.02
2022-09-12T07:33:08.053Z,87.02
2022-09-12T07:34:08.027Z,86.82
2022-09-12T07:35:08.020Z,86.82
2022-09-12T07:36:08.014Z,87.05
2022-09-12T07:37:07.998Z,87.22
2022-09-12T07:38:07.975Z,87.22
2022-09-12T07:39:07.964Z,86.91
2022-09-12T07:40:08.003Z,86.71
2022-09-12T07:41:07.956Z,86.41
2022-09-12T07:42:07.924Z,86.27
2022-09-12T07:43:07.917Z,86.27
2022-09-12T07:44:07.921Z,85.96
2022-09-12T07:45:07.893Z,85.62
2022-09-12T07:46:07.948Z,85.22
2022-09-12T07:47:07.875Z,85.11
2022-09-12T07:48:07.848Z,84.91
2022-09-12T07:49:08.489Z,84.51
2022-09-12T07:50:07.829Z,84.20
2022-09-12T07:51:07.836Z,83.76
2022-09-12T07:52:07.822Z,83.66
2022-09-12T07:53:07.785Z,83.36
2022-09-12T07:54:07.775Z,83.40
2022-09-12T07:55:07.755Z,83.80
2022-09-12T07:56:07.757Z,83.70
2022-09-12T07:57:07.734Z,83.50
2022-09-12T07:58:07.733Z,83.40
2022-09-12T07:59:07.711Z,83.60
2022-09-12T08:00:07.699Z,82.85
2022-09-12T08:01:07.719Z,82.65
2022-09-12T08:02:07.713Z,82.45
2022-09-12T08:03:07.655Z,82.35
2022-09-12T08:04:07.645Z,82.24
2022-09-12T08:05:07.633Z,82.45
2022-09-12T08:06:07.623Z,81.94
2022-09-12T08:07:07.603Z,82.14
2022-09-12T08:08:07.589Z,82.14
2022-09-12T08:09:07.582Z,82.24
2022-09-12T08:10:07.593Z,82.04
2022-09-12T08:11:07.589Z,81.84
2022-09-12T08:12:07.533Z,81.80
2022-09-12T08:13:10.735Z,80.90
2022-09-12T08:14:07.540Z,81.30
2022-09-12T08:15:14.524Z,81.40
2022-09-12T08:16:07.537Z,81.40
2022-09-12T08:17:07.471Z,81.30
2022-09-12T08:18:07.454Z,81.26
2022-09-12T08:19:07.441Z,80.05
2022-09-12T08:20:07.436Z,79.14
2022-09-12T08:21:07.425Z,78.74
2022-09-12T08:22:07.403Z,78.43
2022-09-12T08:23:07.396Z,78.53
2022-09-12T08:24:07.403Z,78.74
2022-09-12T08:25:07.373Z,78.53
2022-09-12T08:26:07.363Z,78.59
2022-09-12T08:27:07.353Z,77.69
2022-09-12T08:28:07.332Z,77.99
2022-09-12T08:29:07.304Z,77.59
2022-09-12T08:30:07.310Z,77.79
2022-09-12T08:31:07.386Z,78.30
2022-09-12T08:32:07.279Z,78.59
2022-09-12T08:33:07.248Z,78.39
2022-09-12T08:34:07.244Z,77.62
2022-09-12T08:35:07.233Z,78.13
2022-09-12T08:36:07.225Z,77.49
2022-09-12T08:37:07.221Z,76.78
2022-09-12T08:38:07.193Z,76.78
2022-09-12T08:39:07.180Z,76.88
2022-09-12T08:40:07.328Z,76.07
2022-09-12T08:41:07.159Z,76.58
2022-09-12T08:42:07.237Z,77.19
2022-09-12T08:43:07.134Z,76.98
2022-09-12T08:44:07.130Z,77.04
2022-09-12T08:45:07.133Z,76.75
2022-09-12T08:46:07.116Z,75.94
2022-09-12T08:47:07.090Z,76.54
2022-09-12T08:48:07.071Z,75.74
2022-09-12T08:49:07.069Z,75.63
2022-09-12T08:50:07.044Z,75.03
2022-09-12T08:51:07.016Z,74.73
2022-09-12T08:52:07.020Z,72.81
2022-09-12T08:53:06.996Z,73.01
2022-09-12T08:54:07.001Z,73.72
2022-09-12T08:55:06.979Z,73.82
2022-09-12T08:56:06.959Z,73.72
2022-09-12T08:57:06.942Z,74.12
2022-09-12T08:58:06.939Z,74.19
2022-09-12T08:59:06.909Z,73.88
2022-09-12T09:00:06.923Z,73.88
2022-09-12T09:01:07.042Z,73.28
2022-09-12T09:02:06.920Z,73.18
2022-09-12T09:03:06.870Z,73.18
2022-09-12T09:04:06.847Z,73.08
2022-09-12T09:05:06.824Z,73.28
2022-09-12T09:06:06.840Z,72.78
2022-09-12T09:07:06.815Z,72.47
2022-09-12T09:08:06.808Z,72.27
2022-09-12T09:09:06.800Z,72.04
2022-09-12T09:10:06.794Z,72.34
2022-09-12T09:11:06.752Z,71.84
2022-09-12T09:12:06.760Z,72.24
2022-09-12T09:13:06.737Z,72.54
2022-09-12T09:14:06.718Z,72.85
2022-09-12T09:15:06.716Z,72.24
2022-09-12T09:16:06.779Z,72.51
2022-09-12T09:17:06.728Z,72.31
2022-09-12T09:18:06.699Z,71.20
2022-09-12T09:19:06.669Z,70.70
2022-09-12T09:20:06.838Z,71.20
2022-09-12T09:21:06.703Z,70.46
2022-09-12T09:22:06.627Z,70.76
2022-09-12T09:23:06.622Z,70.66
2022-09-12T09:24:06.595Z,70.76
2022-09-12T09:25:06.580Z,71.03
2022-09-12T09:26:06.590Z,70.96
2022-09-12T09:27:23.505Z,70.76
2022-09-12T09:28:07.546Z,70.96
2022-09-12T09:29:06.536Z,71.16
2022-09-12T09:30:06.528Z,71.47
2022-09-12T09:31:06.551Z,71.06
2022-09-12T09:32:06.508Z,69.65
2022-09-12T09:33:06.477Z,70.16
2022-09-12T09:34:06.462Z,69.35
2022-09-12T09:35:06.445Z,69.59
2022-09-12T09:36:06.445Z,70.22
2022-09-12T09:37:06.414Z,70.12
2022-09-12T09:38:06.406Z,69.89
2022-09-12T09:39:06.406Z,69.79
2022-09-12T09:40:06.458Z,69.38
2022-09-12T09:41:06.364Z,69.29
2022-09-12T09:42:06.362Z,69.89
2022-09-12T09:43:06.347Z,69.89
2022-09-12T09:45:06.347Z,69.69
2022-09-12T09:46:06.368Z,69.49
2022-09-12T09:47:06.304Z,69.49
2022-09-12T09:48:06.356Z,69.69
2022-09-12T09:49:06.326Z,69.69
2022-09-12T09:50:06.275Z,69.89
2022-09-12T09:51:06.233Z,69.49
2022-09-12T09:52:06.540Z,69.05
2022-09-12T09:53:06.204Z,68.85
2022-09-12T09:54:06.193Z,68.44
2022-09-12T09:55:06.183Z,68.31
2022-09-12T09:56:06.233Z,66.80
2022-09-12T09:57:06.164Z,66.00
2022-09-12T09:58:06.245Z,66.71
2022-09-12T09:59:06.160Z,65.70
2022-09-12T10:00:06.129Z,65.59
2022-09-12T10:01:06.199Z,66.40
2022-09-12T10:02:06.135Z,66.30
2022-09-12T10:03:08.243Z,66.10
2022-09-12T10:04:07.093Z,65.90
2022-09-12T10:05:06.059Z,65.97
2022-09-12T10:06:06.055Z,65.67
2022-09-12T10:07:06.034Z,65.56
2022-09-12T10:08:06.053Z,65.67
2022-09-12T10:09:06.000Z,65.16
2022-09-12T10:10:06.006Z,64.96
2022-09-12T10:11:05.983Z,64.36
2022-09-12T10:12:05.971Z,64.23
2022-09-12T10:13:05.965Z,63.53
2022-09-12T10:14:05.942Z,63.56
2022-09-12T10:15:05.949Z,62.85
2022-09-12T10:16:05.954Z,63.35
2022-09-12T10:17:05.933Z,63.15
2022-09-12T10:18:05.913Z,64.06
2022-09-12T10:19:05.879Z,64.16
2022-09-12T10:20:22.162Z,64.26
2022-09-12T10:21:06.831Z,63.76
2022-09-12T10:22:05.839Z,63.76
2022-09-12T10:23:05.853Z,63.65
2022-09-12T10:24:05.812Z,63.76
2022-09-12T10:25:05.793Z,63.85
2022-09-12T10:26:05.785Z,63.73
2022-09-12T10:27:05.763Z,64.53
2022-09-12T10:28:05.763Z,64.53
2022-09-12T10:29:05.763Z,64.63
2022-09-12T10:30:05.743Z,64.60
2022-09-12T10:31:05.792Z,64.40
2022-09-12T10:32:05.744Z,63.79
2022-09-12T10:33:05.701Z,63.39
2022-09-12T10:34:05.701Z,63.73
2022-09-12T10:35:05.738Z,63.93
2022-09-12T10:36:05.680Z,63.42
2022-09-12T10:37:05.650Z,63.62
2022-09-12T10:38:05.651Z,64.16
2022-09-12T10:39:05.614Z,64.43
2022-09-12T10:40:05.648Z,64.43
2022-09-12T10:41:05.611Z,64.40
2022-09-12T10:42:05.584Z,64.30
2022-09-12T10:43:05.561Z,63.46
2022-09-12T10:44:05.542Z,61.96
2022-09-12T10:45:05.540Z,61.96
2022-09-12T10:46:05.610Z,62.46
2022-09-12T10:47:05.503Z,62.66
2022-09-12T10:48:07.710Z,62.89
2022-09-12T10:49:05.474Z,62.59
2022-09-12T10:50:05.501Z,62.99
2022-09-12T10:51:05.448Z,63.32
2022-09-12T10:52:05.434Z,63.82
2022-09-12T10:53:05.430Z,63.93
2022-09-12T10:54:05.413Z,64.03
2022-09-12T10:55:05.409Z,63.82
2022-09-12T10:56:05.394Z,64.03
2022-09-12T10:57:05.369Z,63.22
2022-09-12T10:58:05.363Z,63.22
2022-09-12T10:59:05.369Z,62.69
2022-09-12T11:00:05.337Z,62.96
2022-09-12T11:01:05.368Z,61.35
2022-09-12T11:02:05.373Z,61.52
2022-09-12T11:03:05.290Z,60.52
2022-09-12T11:04:05.273Z,60.62
2022-09-12T11:05:05.271Z,60.39
2022-09-12T11:06:05.276Z,60.39
2022-09-12T11:07:05.243Z,60.69
2022-09-12T11:08:05.233Z,60.69
2022-09-12T11:09:05.215Z,60.19
2022-09-12T11:10:05.217Z,60.19
2022-09-12T11:11:05.190Z,60.06
2022-09-12T11:12:05.182Z,60.33
2022-09-12T11:13:05.169Z,59.94
2022-09-12T11:14:05.166Z,59.83
2022-09-12T11:15:05.142Z,59.70
2022-09-12T11:16:05.221Z,58.43
2022-09-12T11:17:05.111Z,58.43
2022-09-12T11:18:05.090Z,58.43
2022-09-12T11:19:05.079Z,59.33
2022-09-12T11:20:05.089Z,60.03
2022-09-12T11:21:05.058Z,59.53
2022-09-12T11:22:05.053Z,60.06
2022-09-12T11:23:05.029Z,60.97
2022-09-12T11:24:05.021Z,61.14
2022-09-12T11:25:05.006Z,60.33
2022-09-12T11:26:05.044Z,60.14
2022-09-12T11:27:05.010Z,60.03
2022-09-12T11:28:04.970Z,59.64
2022-09-12T11:29:04.959Z,58.83
2022-09-12T11:30:04.940Z,59.13
2022-09-12T11:31:04.996Z,59.61
2022-09-12T11:32:04.909Z,59.81
2022-09-12T11:33:04.896Z,59.70
2022-09-12T11:34:04.887Z,59.31
2022-09-12T11:35:04.875Z,60.24
2022-09-12T11:36:04.878Z,58.83
2022-09-12T11:37:09.867Z,59.46
2022-09-12T11:38:05.827Z,59.16
2022-09-12T11:39:04.820Z,59.26
2022-09-12T11:40:04.846Z,59.96
2022-09-12T11:41:04.799Z,60.06
2022-09-12T11:42:04.779Z,60.27
2022-09-12T11:43:04.769Z,60.14
2022-09-12T11:44:04.748Z,59.74
2022-09-12T11:45:04.741Z,59.91
2022-09-12T11:46:04.741Z,58.40
2022-09-12T11:47:04.720Z,57.83
2022-09-12T11:48:04.711Z,58.46
2022-09-12T11:49:04.679Z,58.76
2022-09-12T11:50:04.671Z,59.06
2022-09-12T11:51:04.671Z,59.06
2022-09-12T11:52:04.638Z,58.56
2022-09-12T11:53:04.657Z,59.16
2022-09-12T11:54:04.629Z,58.79
2022-09-12T11:55:04.638Z,58.69
2022-09-12T11:56:04.607Z,58.69
2022-09-12T11:57:04.597Z,58.46
2022-09-12T11:58:04.638Z,58.46
2022-09-12T11:59:04.568Z,58.53
2022-09-12T12:00:04.568Z,58.73
2022-09-12T12:01:04.569Z,58.81
2022-09-12T12:02:04.642Z,58.40
2022-09-12T12:03:04.512Z,58.11
2022-09-12T12:04:04.696Z,57.80
2022-09-12T12:05:05.399Z,58.20
2022-09-12T12:06:04.528Z,57.70
2022-09-12T12:07:04.516Z,58.20
2022-09-12T12:08:04.496Z,58.18
2022-09-12T12:09:04.451Z,58.18
2022-09-12T12:10:04.436Z,57.78
2022-09-12T12:11:04.494Z,58.35
2022-09-12T12:12:05.132Z,57.24
2022-09-12T12:13:04.448Z,57.15
2022-09-12T12:14:04.408Z,56.74
2022-09-12T12:15:04.357Z,56.67
2022-09-12T12:16:04.415Z,56.74
2022-09-12T12:17:04.318Z,55.57
2022-09-12T12:18:04.320Z,56.77
2022-09-12T12:19:07.575Z,57.07
2022-09-12T12:20:08.322Z,56.27
2022-09-12T12:21:04.268Z,56.57
2022-09-12T12:22:04.257Z,56.05
2022-09-12T12:23:04.255Z,55.85
2022-09-12T12:24:04.239Z,55.85
2022-09-12T12:25:04.230Z,56.15
2022-09-12T12:26:04.206Z,56.05
2022-09-12T12:27:04.195Z,55.65
2022-09-12T12:28:04.182Z,55.65
2022-09-12T12:29:04.176Z,55.82
2022-09-12T12:30:04.196Z,54.55
2022-09-12T12:31:04.216Z,54.94
2022-09-12T12:32:04.143Z,55.24
2022-09-12T12:33:04.126Z,55.07
2022-09-12T12:34:04.122Z,55.17
2022-09-12T12:35:04.131Z,55.67
2022-09-12T12:36:04.125Z,55.47
2022-09-12T12:37:07.252Z,55.98
2022-09-12T12:38:04.077Z,56.77
2022-09-12T12:39:04.059Z,56.98
2022-09-12T12:40:04.058Z,57.10
2022-09-12T12:41:04.017Z,58.00
2022-09-12T12:42:04.007Z,58.50
2022-09-12T12:43:04.004Z,58.50
2022-09-12T12:44:03.974Z,58.50
2022-09-12T12:45:03.960Z,58.30
2022-09-12T12:46:04.043Z,58.20
2022-09-12T12:47:03.956Z,57.93
2022-09-12T12:48:08.049Z,58.16
2022-09-12T12:49:03.907Z,58.86
2022-09-12T12:50:03.896Z,59.16
2022-09-12T12:51:03.906Z,59.77
2022-09-12T12:52:03.867Z,59.66
2022-09-12T12:53:03.857Z,59.77
2022-09-12T12:54:03.843Z,59.77
2022-09-12T12:55:03.833Z,59.56